• Join FlightAware (Why Join?)
  • Login
  • US Flag 
05:08PM EDT


 

Airport Tracker/Info


-or-


 

Live Flight TrackerFlight Track Log ✈ CPA80 ✈ 08-May-2013 ✈ PANC - KORD

Flight Track Log - Related Links

Times and Time Zones

All times are in EDT time to prevent confusion due to time zone crossing. See the CPA80 flight status page for this flight to view local times or setup timezone preferences in your user account.

Time Position Orientation Groundspeed Altitude Reporting Facility
EDT Latitude Longitude Course Direction KTS MPH feet Rate Location/Type
04:24PM 61.3167 -150.0167 86° East 290 334 6,300  Level Anchorage Center
04:25PM 61.3000 -149.8667 103° East 290 334 9,000 2,520 Climbing Anchorage Center
04:26PM 61.2833 -149.6833 101° East 300 345 11,400 2,340 Climbing Anchorage Center
04:27PM 61.0168 -148.0591 90° East  Level FlightAware Approximate
04:27PM 61.2833 -149.5000 90° East 330 380 13,800  Level Anchorage Center
04:28PM 61.0167 -147.7712 90° East  Level FlightAware Approximate
04:28PM 61.2833 -149.3000 90° East 350 403 16,300  Level Anchorage Center
04:29PM 61.0252 -147.4838 86° East  Level FlightAware Approximate
04:29PM 61.2833 -149.1167 90° East 380 437 17,400  Level Anchorage Center
04:30PM 61.2833 -148.8833 90° East 430 495 18,800 1,680 Climbing Anchorage Center
04:31PM 61.2833 -148.6167 90° East 450 518 20,800 1,860 Climbing Anchorage Center
04:32PM 61.2667 -148.3333 97° East 470 541 22,600 1,740 Climbing Anchorage Center
04:33PM 61.2667 -148.0500 90° East 490 564 24,300 1,620 Climbing Anchorage Center
04:34PM 61.2667 -147.7500 90° East 510 587 25,900 1,380 Climbing Anchorage Center
04:35PM 61.2500 -147.3833 95° East 540 621 27,200 1,500 Climbing Anchorage Center
04:36PM 61.2500 -147.0667 90° East 550 633 29,000 1,620 Climbing Anchorage Center
04:37PM 61.2333 -146.7833 97° East 540 621 30,500 1,500 Climbing Anchorage Center
04:38PM 61.2333 -146.4667 90° East 540 621 32,100 1,200 Climbing Anchorage Center
04:39PM 61.2167 -146.1500 96° East 550 633 33,000 420 Climbing Anchorage Center
04:40PM 61.2000 -145.8333 96° East 550 633 33,000  Level Anchorage Center
04:41PM 61.2000 -145.5167 90° East 540 621 33,000  Level Anchorage Center
04:42PM 61.1833 -145.2000 96° East 550 633 33,000  Level Anchorage Center
04:43PM 61.1667 -144.8833 96° East 540 621 33,000  Level Anchorage Center
04:44PM 61.1667 -144.5667 90° East 550 633 33,000  Level Anchorage Center
04:45PM 61.1500 -144.2500 96° East 550 633 33,000  Level Anchorage Center
04:46PM 61.1333 -143.9333 96° East 550 633 33,000  Level Anchorage Center
04:47PM 61.1167 -143.6167 96° East 550 633 33,000  Level Anchorage Center
04:48PM 61.1000 -143.3000 96° East 550 633 33,000  Level Anchorage Center
04:50PM 61.0667 -142.6833 96° East 540 621 33,000  Level Anchorage Center
04:51PM 61.0333 -142.3667 102° East 550 633 33,000  Level Anchorage Center
04:52PM 61.0167 -142.0500 96° East 550 633 33,000  Level Anchorage Center
04:53PM 61.0000 -141.7333 96° East 540 621 33,000  Level Anchorage Center
04:54PM 60.9833 -141.4167 96° East 550 633 33,000  Level Anchorage Center
04:55PM 60.9667 -141.1000 96° East 550 633 33,000  Level Anchorage Center
04:56PM 60.9500 -140.7833 96° East 550 633 33,000  Level Anchorage Center
04:57PM 60.9333 -140.4667 96° East 550 633 33,000  Level Anchorage Center
04:59PM 60.9076 -139.9191 95° East  Level FlightAware Approximate
05:06PM 60.7964 -137.8906 96° East  Level FlightAware Approximate
05:07PM 60.7780 -137.6020 97° East  Level FlightAware Approximate
05:08PM 60.7591 -137.3137 98° East  Level FlightAware Approximate
05:09PM 60.7395 -137.0258 98° East  Level FlightAware Approximate
05:10PM 60.7193 -136.7383 98° East  Level FlightAware Approximate
05:11PM 60.6985 -136.4511 98° East  Level FlightAware Approximate
05:12PM 60.6771 -136.1643 99° East  Level FlightAware Approximate
05:13PM 60.6551 -135.8778 99° East  Level FlightAware Approximate
05:14PM 60.6325 -135.5918 99° East  Level FlightAware Approximate
05:15PM 60.6092 -135.3062 99° East  Level FlightAware Approximate
05:16PM 60.5854 -135.0210 100° East  Level FlightAware Approximate
05:17PM 60.5609 -134.7362 100° East  Level FlightAware Approximate
05:18PM 60.5359 -134.4519 100° East  Level FlightAware Approximate
05:19PM 60.5102 -134.1680 100° East  Level FlightAware Approximate
05:20PM 60.4839 -133.8845 101° East  Level FlightAware Approximate
05:21PM 60.4571 -133.6015 101° East  Level FlightAware Approximate
05:22PM 60.4296 -133.3190 101° East  Level FlightAware Approximate
05:23PM 60.4015 -133.0370 101° East  Level FlightAware Approximate
05:24PM 60.3729 -132.7555 102° East  Level FlightAware Approximate
05:25PM 60.3436 -132.4745 102° East  Level FlightAware Approximate
05:26PM 60.3138 -132.1940 102° East  Level FlightAware Approximate
05:27PM 60.2833 -131.9140 102° East  Level FlightAware Approximate
05:28PM 60.2523 -131.6345 102° East  Level FlightAware Approximate
05:29PM 60.2207 -131.3555 103° East  Level FlightAware Approximate
05:30PM 60.1885 -131.0771 103° East  Level FlightAware Approximate
05:31PM 60.1558 -130.7993 103° East  Level FlightAware Approximate
05:32PM 60.1224 -130.5220 103° East  Level FlightAware Approximate
05:33PM 60.0885 -130.2453 104° East  Level FlightAware Approximate
05:34PM 60.0540 -129.9691 104° East  Level FlightAware Approximate
05:35PM 60.0189 -129.6935 104° East  Level FlightAware Approximate
05:36PM 59.9832 -129.4186 104° East  Level FlightAware Approximate
05:37PM 59.9470 -129.1442 105° East  Level FlightAware Approximate
05:38PM 59.9102 -128.8704 105° East  Level FlightAware Approximate
05:39PM 59.8728 -128.5972 105° East  Level FlightAware Approximate
05:40PM 59.8349 -128.3247 105° East  Level FlightAware Approximate
05:41PM 59.7964 -128.0527 106° East  Level FlightAware Approximate
05:42PM 59.7574 -127.7814 106° East  Level FlightAware Approximate
05:43PM 59.7178 -127.5108 106° East  Level FlightAware Approximate
05:44PM 59.6776 -127.2408 106° East  Level FlightAware Approximate
05:45PM 59.6369 -126.9714 107° East  Level FlightAware Approximate
05:46PM 59.5956 -126.7027 107° East  Level FlightAware Approximate
05:47PM 59.5538 -126.4346 107° East  Level FlightAware Approximate
05:48PM 59.5115 -126.1672 107° East  Level FlightAware Approximate
05:49PM 59.4689 -125.9003 107° East  Level FlightAware Approximate
05:50PM 59.4258 -125.6341 108° East  Level FlightAware Approximate
05:51PM 59.3821 -125.3685 108° East  Level FlightAware Approximate
05:52PM 59.3379 -125.1037 108° East  Level FlightAware Approximate
05:53PM 59.2932 -124.8395 108° East  Level FlightAware Approximate
05:54PM 59.2479 -124.5760 108° East  Level FlightAware Approximate
05:55PM 59.2021 -124.3133 109° East  Level FlightAware Approximate
05:56PM 59.1558 -124.0512 109° East  Level FlightAware Approximate
05:57PM 59.1089 -123.7898 109° East  Level FlightAware Approximate
05:58PM 59.0616 -123.5292 109° East  Level FlightAware Approximate
05:59PM 59.0137 -123.2693 110° East  Level FlightAware Approximate
06:00PM 58.9652 -123.0101 110° East  Level FlightAware Approximate
06:01PM 58.9163 -122.7517 110° East  Level FlightAware Approximate
06:02PM 58.8669 -122.4940 110° East  Level FlightAware Approximate
06:03PM 58.8169 -122.2370 110° East  Level FlightAware Approximate
06:04PM 58.7664 -121.9808 111° Southeast  Level FlightAware Approximate
06:05PM 58.7155 -121.7253 111° Southeast  Level FlightAware Approximate
06:06PM 58.6640 -121.4705 111° Southeast  Level FlightAware Approximate
06:07PM 58.6120 -121.2165 111° Southeast  Level FlightAware Approximate
06:08PM 58.5595 -120.9633 112° Southeast  Level FlightAware Approximate
06:09PM 58.5065 -120.7109 112° Southeast  Level FlightAware Approximate
06:10PM 58.4531 -120.4592 112° Southeast  Level FlightAware Approximate
06:11PM 58.3991 -120.2082 112° Southeast  Level FlightAware Approximate
06:12PM 58.3447 -119.9581 112° Southeast  Level FlightAware Approximate
06:13PM 58.2897 -119.7087 113° Southeast  Level FlightAware Approximate
06:13PM 58.6833 -117.8833 114° Southeast 530 610 33,000  Level Edmonton Center
06:14PM 58.2343 -119.4601 113° Southeast  Level FlightAware Approximate
06:14PM 58.6167 -117.6000 114° Southeast 540 621 33,000  Level Edmonton Center
06:15PM 58.1784 -119.2122 113° Southeast  Level FlightAware Approximate
06:15PM 58.5667 -117.3167 109° East 570 656 33,000  Level Edmonton Center
06:16PM 58.1220 -118.9652 113° Southeast  Level FlightAware Approximate
06:17PM 58.0652 -118.7189 113° Southeast  Level FlightAware Approximate
06:17PM 58.4833 -116.7667 106° East 550 633 33,000  Level Edmonton Center
06:18PM 58.0078 -118.4734 114° Southeast  Level FlightAware Approximate
06:18PM 58.4500 -116.4833 103° East 560 644 33,000  Level Edmonton Center
06:19PM 58.4167 -116.2167 103° East 550 633 33,000  Level Edmonton Center
06:20PM 58.3667 -115.9000 107° East 550 633 33,000  Level Edmonton Center
06:21PM 58.3333 -115.6333 103° East 550 633 33,000  Level Edmonton Center
06:22PM 58.2833 -115.3167 107° East 550 633 33,000  Level Edmonton Center
06:23PM 58.2500 -115.0500 103° East 550 633 33,000  Level Edmonton Center
06:24PM 58.2000 -114.7833 109° East 550 633 33,000  Level Edmonton Center
06:25PM 58.1667 -114.5000 102° East 550 633 33,000  Level Edmonton Center
06:26PM 58.1167 -114.2000 107° East 540 621 33,000  Level Edmonton Center
06:27PM 58.0667 -113.9333 109° East 550 633 33,000  Level Edmonton Center
06:28PM 58.0167 -113.6333 107° East 550 633 33,000  Level Edmonton Center
06:29PM 57.9833 -113.3667 103° East 550 633 33,000  Level Edmonton Center
06:30PM 57.9333 -113.1000 109° East 550 633 33,000  Level Edmonton Center
06:31PM 57.8833 -112.8167 108° East 550 633 33,000  Level Edmonton Center
06:32PM 57.8333 -112.5500 109° East 550 633 33,000  Level Edmonton Center
06:33PM 57.7833 -112.2500 107° East 550 633 33,000  Level Edmonton Center
06:34PM 57.7500 -112.0000 104° East 550 633 33,000  Level Edmonton Center
06:35PM 57.6833 -111.7333 115° Southeast 540 621 33,000  Level Edmonton Center
06:36PM 57.6333 -111.4667 109° East 540 621 33,000  Level Edmonton Center
06:37PM 57.5833 -111.2000 109° East 540 621 33,000  Level Edmonton Center
06:38PM 57.5500 -110.9167 102° East 540 621 33,000  Level Edmonton Center
06:39PM 57.4833 -110.6500 115° Southeast 540 621 33,000  Level Edmonton Center
06:40PM 57.4333 -110.3833 109° East 540 621 33,000  Level Edmonton Center
06:41PM 57.3667 -110.1167 115° Southeast 540 621 33,000  Level Edmonton Center
06:42PM 57.2833 -109.8833 123° Southeast 540 621 33,000 300 Level Edmonton Center
06:43PM 57.2000 -109.6333 122° Southeast 540 621 33,700 900 Climbing Edmonton Center
06:44PM 57.1333 -109.4000 118° Southeast 540 621 34,900 600 Climbing Edmonton Center
06:45PM 57.0500 -109.1333 120° Southeast 540 621 35,000  Climbing Edmonton Center
06:46PM 57.0000 -108.8833 110° East 540 621 35,000  Level Edmonton Center
06:47PM 56.9167 -108.6333 121° Southeast 540 621 35,000  Level Edmonton Center
06:48PM 56.8333 -108.4000 123° Southeast 540 621 35,000  Level Edmonton Center
06:49PM 56.7667 -108.1833 119° Southeast 540 621 35,000  Level Edmonton Center
06:50PM 56.6833 -107.9333 121° Southeast 540 621 35,000  Level Edmonton Center
06:51PM 56.6167 -107.6667 114° Southeast 540 621 35,000  Level Edmonton Center
06:52PM 56.5333 -107.4500 125° Southeast 530 610 35,000  Level Edmonton Center
06:53PM 56.4667 -107.2000 116° Southeast 540 621 35,000  Level Edmonton Center
06:54PM 56.3833 -106.9833 125° Southeast 530 610 35,000  Level Edmonton Center
06:55PM 56.3000 -106.7333 121° Southeast 530 610 35,000  Level Edmonton Center
06:56PM 56.2333 -106.4833 116° Southeast 540 621 35,000  Level Edmonton Center
06:57PM 56.1500 -106.2667 125° Southeast 540 621 35,000  Level Edmonton Center
06:58PM 56.1167 -106.2000 132° Southeast 540 621 35,000  Level Winnipeg Center
06:59PM 56.0333 -105.9667 123° Southeast 540 621 35,000  Level Winnipeg Center
07:00PM 55.9500 -105.7333 122° Southeast 540 621 35,000  Level Winnipeg Center
07:01PM 55.8667 -105.5000 122° Southeast 540 621 35,000  Level Winnipeg Center
07:02PM 55.7833 -105.3000 126° Southeast 540 621 35,000  Level Winnipeg Center
07:03PM 55.7000 -105.0833 124° Southeast 540 621 35,000  Level Winnipeg Center
07:04PM 55.6000 -104.8500 127° Southeast 540 621 35,000  Level Winnipeg Center
07:05PM 55.5167 -104.6500 126° Southeast 540 621 35,000  Level Winnipeg Center
07:06PM 55.4333 -104.4333 124° Southeast 540 621 35,000  Level Winnipeg Center
07:06PM 55.3833 -104.3000 123° Southeast 530 610 35,000  Level Edmonton Center
07:07PM 55.3500 -104.2167 125° Southeast 540 621 35,000  Level Winnipeg Center
07:08PM 55.2500 -103.9833 127° Southeast 540 621 35,000  Level Winnipeg Center
07:08PM 55.1833 -103.8667 135° Southeast 530 610 35,000  Level Edmonton Center
07:09PM 55.1000 -103.6667 126° Southeast 530 610 35,000  Level Edmonton Center
07:10PM 55.0833 -103.5833 109° East 540 621 35,000  Level Winnipeg Center
07:11PM 54.9833 -103.3500 127° Southeast 540 621 35,000  Level Winnipeg Center
07:12PM 54.9000 -103.1667 128° Southeast 540 621 35,000  Level Winnipeg Center
07:13PM 54.8000 -102.9500 129° Southeast 540 621 35,000  Level Winnipeg Center
07:14PM 54.7167 -102.7333 124° Southeast 540 621 35,000  Level Winnipeg Center
07:14PM 54.6500 -102.6000 131° Southeast 530 610 35,000  Level Edmonton Center
07:15PM 54.6167 -102.5500 139° Southeast 540 621 35,000  Level Winnipeg Center
07:16PM 54.5333 -102.3333 123° Southeast 530 610 35,000  Level Winnipeg Center
07:16PM 54.4667 -102.2000 131° Southeast 530 610 35,000  Level Edmonton Center
07:17PM 54.3833 -102.0000 126° Southeast 530 610 35,000  Level Edmonton Center
07:18PM 54.3500 -101.9333 131° Southeast 530 610 35,000  Level Winnipeg Center
07:19PM 54.2500 -101.7500 133° Southeast 530 610 35,000  Level Winnipeg Center
07:20PM 54.1667 -101.5333 123° Southeast 530 610 35,000  Level Winnipeg Center
07:20PM 54.1000 -101.4167 134° Southeast 520 598 35,000  Level Edmonton Center
07:21PM 54.0167 -101.2167 125° Southeast 520 598 35,000  Level Edmonton Center
07:22PM 53.9167 -101.0167 130° Southeast 520 598 35,000  Level Edmonton Center
07:23PM 53.8667 -101.0000 169° South 520 598 35,000  Level Winnipeg Center
07:24PM 53.7333 -100.8667 149° Southeast 520 598 35,000  Level Winnipeg Center
07:25PM 53.6167 -100.7500 149° Southeast 520 598 35,000  Level Winnipeg Center
07:26PM 53.4833 -100.6167 149° Southeast 510 587 35,000  Level Winnipeg Center
07:27PM 53.3833 -100.5000 145° Southeast 520 598 35,000  Level Winnipeg Center
07:28PM 53.2667 -100.3833 149° Southeast 520 598 35,000  Level Winnipeg Center
07:29PM 53.1333 -100.2333 146° Southeast 520 598 35,000  Level Winnipeg Center
07:30PM 53.0167 -100.1167 149° Southeast 500 575 35,000  Level Winnipeg Center
07:31PM 52.8833 -99.9833 149° Southeast 510 587 35,000  Level Winnipeg Center
07:32PM 52.7667 -99.8667 149° Southeast 510 587 35,000  Level Winnipeg Center
07:33PM 52.6667 -99.7500 145° Southeast 510 587 35,000  Level Winnipeg Center
07:34PM 52.5333 -99.6333 152° Southeast 510 587 35,000  Level Winnipeg Center
07:35PM 52.4167 -99.5167 149° Southeast 510 587 35,000  Level Winnipeg Center
07:36PM 52.2833 -99.4000 152° Southeast 510 587 35,000  Level Winnipeg Center
07:37PM 52.1667 -99.2833 148° Southeast 510 587 35,000  Level Winnipeg Center
07:38PM 52.0333 -99.1667 152° Southeast 510 587 35,000  Level Winnipeg Center
07:39PM 51.9167 -99.0500 148° Southeast 510 587 35,000  Level Winnipeg Center
07:40PM 51.7833 -98.9333 152° Southeast 510 587 35,000  Level Winnipeg Center
07:41PM 51.6667 -98.8000 145° Southeast 510 587 35,000  Level Winnipeg Center
07:42PM 51.5333 -98.6833 151° Southeast 510 587 35,000  Level Winnipeg Center
07:43PM 51.4167 -98.5833 152° Southeast 510 587 35,000  Level Winnipeg Center
07:44PM 51.3000 -98.4667 148° Southeast 510 587 35,000  Level Winnipeg Center
07:45PM 51.1833 -98.3500 148° Southeast 510 587 35,000  Level Winnipeg Center
07:46PM 51.0500 -98.2500 155° Southeast 510 587 35,000  Level Winnipeg Center
07:47PM 50.9333 -98.1333 148° Southeast 510 587 35,000  Level Winnipeg Center
07:48PM 50.8167 -98.0167 148° Southeast 510 587 35,000  Level Winnipeg Center
07:49PM 50.6833 -97.8833 148° Southeast 510 587 35,000  Level Winnipeg Center
07:50PM 50.5667 -97.8167 160° South 510 587 35,000  Level Winnipeg Center
07:51PM 50.4333 -97.6667 144° Southeast 510 587 35,000  Level Winnipeg Center
07:52PM 50.3167 -97.5667 151° Southeast 510 587 35,000  Level Winnipeg Center
07:53PM 50.1833 -97.4667 154° Southeast 510 587 35,000  Level Winnipeg Center
07:54PM 50.0667 -97.3500 147° Southeast 510 587 35,000  Level Winnipeg Center
07:55PM 49.9333 -97.2500 154° Southeast 520 598 35,000  Level Winnipeg Center
07:56PM 49.8167 -97.1500 151° Southeast 510 587 35,000  Level Winnipeg Center
07:57PM 49.7000 -97.0167 144° Southeast 510 587 35,000  Level Winnipeg Center
07:58PM 49.5833 -96.9167 151° Southeast 510 587 35,000  Level Winnipeg Center
07:59PM 49.4500 -96.7833 147° Southeast 510 587 35,000  Level Winnipeg Center
08:00PM 49.3333 -96.6833 151° Southeast 500 575 35,000  Level Winnipeg Center
08:01PM 49.2167 -96.5500 143° Southeast 500 575 35,000  Level Winnipeg Center
08:02PM 49.1000 -96.4500 151° Southeast 500 575 35,000  Level Winnipeg Center
08:03PM 48.9667 -96.3333 150° Southeast 500 575 35,000  Level Winnipeg Center
08:04PM 48.8500 -96.2333 151° Southeast 500 575 35,000  Level Winnipeg Center
08:05PM 48.7333 -96.1000 143° Southeast 500 575 35,000  Level Winnipeg Center
08:05PM 48.6903 -96.0694 155° Southeast 504 580 35,000 -60 Level Minneapolis Center
08:06PM 48.5681 -95.9578 149° Southeast 508 585 34,900 -60 Descending Minneapolis Center
08:07PM 48.4211 -95.8411 152° Southeast 501 577 34,900  Level Minneapolis Center
08:08PM 48.2981 -95.7442 152° Southeast 500 575 34,900  Level Minneapolis Center
08:09PM 48.1744 -95.6447 152° Southeast 500 575 35,000  Climbing Minneapolis Center
08:10PM 48.0514 -95.5450 152° Southeast 502 578 35,000 -60 Level Minneapolis Center
08:11PM 47.9283 -95.4472 152° Southeast 503 579 34,900  Descending Minneapolis Center
08:12PM 47.8036 -95.3506 152° Southeast 505 581 35,000  Climbing Minneapolis Center
08:13PM 47.6561 -95.2347 152° Southeast 505 581 35,000  Level Minneapolis Center
08:14PM 47.5333 -95.1383 152° Southeast 503 579 35,000  Level Minneapolis Center
08:16PM 47.4122 -95.0414 152° Southeast 502 578 35,000  Level Minneapolis Center
08:17PM 47.2875 -94.9464 153° Southeast 507 583 35,000  Level Minneapolis Center
08:18PM 47.1636 -94.8522 153° Southeast 506 582 35,000 -60 Level Minneapolis Center
08:19PM 47.0147 -94.7378 152° Southeast 506 582 34,900 -60 Descending Minneapolis Center
08:20PM 46.8908 -94.6456 153° Southeast 505 581 34,900  Level Minneapolis Center
08:21PM 46.7675 -94.5522 153° Southeast 502 578 34,900  Level Minneapolis Center
08:22PM 46.6197 -94.4419 153° Southeast 502 578 35,000  Climbing Minneapolis Center
08:23PM 46.4969 -94.3522 153° Southeast 500 575 34,900  Descending Minneapolis Center
08:24PM 46.3750 -94.2611 153° Southeast 497 572 35,000  Climbing Minneapolis Center
08:25PM 46.2278 -94.1539 153° Southeast 495 570 35,000  Level Minneapolis Center
08:26PM 46.0967 -94.0567 153° Southeast 495 570 35,000  Level Minneapolis Center
08:27PM 45.9756 -93.9692 153° Southeast 491 565 35,000  Level Minneapolis Center
08:28PM 45.8303 -93.8631 153° Southeast 490 564 35,000  Level Minneapolis Center
08:29PM 45.7103 -93.7775 154° Southeast 486 559 35,000  Level Minneapolis Center
08:30PM 45.5903 -93.6903 153° Southeast 485 558 35,000  Level Minneapolis Center
08:31PM 45.4700 -93.6050 154° Southeast 485 558 35,000  Level Minneapolis Center
08:32PM 45.3644 -93.4294 131° Southeast 498 573 35,000  Level Minneapolis Center
08:34PM 45.2881 -93.2675 124° Southeast 495 570 35,000  Level Minneapolis Center
08:35PM 45.2133 -93.1044 123° Southeast 493 567 35,000  Level Minneapolis Center
08:36PM 45.1364 -92.9428 124° Southeast 492 566 35,000  Level Minneapolis Center
08:37PM 45.0556 -92.7842 126° Southeast 493 567 35,000  Level Minneapolis Center
08:38PM 44.9733 -92.6319 127° Southeast 486 559 35,000  Level Minneapolis Center
08:39PM 44.8928 -92.4764 126° Southeast 488 562 35,000  Level Minneapolis Center
08:40PM 44.7942 -92.2908 127° Southeast 492 566 35,000  Level Minneapolis Center
08:41PM 44.7131 -92.1381 127° Southeast 489 563 35,000  Level Minneapolis Center
08:42PM 44.6311 -91.9861 127° Southeast 488 562 35,000  Level Minneapolis Center
08:43PM 44.5497 -91.8356 127° Southeast 487 560 35,000 -480 Level Minneapolis Center
08:44PM 44.4686 -91.6853 127° Southeast 486 559 34,100 -900 Descending Minneapolis Center
08:45PM 44.3869 -91.5339 127° Southeast 487 560 33,200 -1,020 Descending Minneapolis Center
08:46PM 44.2883 -91.3531 127° Southeast 489 563 32,100 -840 Descending Minneapolis Center
08:47PM 44.2203 -91.2297 128° Southeast 486 559 31,500 -540 Descending Minneapolis Center
08:48PM 44.1236 -91.0544 127° Southeast 481 554 31,000 -300 Descending Minneapolis Center
08:49PM 44.0433 -90.9097 128° Southeast 477 549 31,000  Level Minneapolis Center
08:50PM 43.9628 -90.7653 128° Southeast 476 548 31,000  Level Minneapolis Center
08:51PM 43.8819 -90.6211 128° Southeast 476 548 31,000  Level Minneapolis Center
08:52PM 43.7933 -90.4628 128° Southeast 478 550 31,000 -120 Level Minneapolis Center
08:53PM 43.7031 -90.3050 128° Southeast 477 549 30,800 -840 Descending Minneapolis Center
08:54PM 43.6328 -90.1800 128° Southeast 463 533 29,300 -1,740 Descending Minneapolis Center
08:55PM 43.5422 -90.0233 129° Southeast 452 520 27,300 -1,800 Descending Minneapolis Center
08:56PM 43.4683 -89.8961 129° Southeast 435 501 25,700 -1,560 Descending Minneapolis Center
08:57PM 43.3953 -89.7697 128° Southeast 426 490 24,100 -1,560 Descending Minneapolis Center
08:58PM 43.3247 -89.6475 128° Southeast 413 475 22,500 -1,560 Descending Chicago Center
08:59PM 43.2553 -89.5297 129° Southeast 401 461 20,900 -1,680 Descending Chicago Center
09:00PM 43.1783 -89.3989 129° Southeast 383 441 19,100 -1,560 Descending Chicago Center
09:01PM 43.0981 -89.3203 144° Southeast 363 418 17,700 -1,500 Descending Chicago Center
09:02PM 43.0072 -89.2719 159° South 355 409 16,100 -1,140 Descending Chicago Center
09:03PM 42.9331 -89.1783 137° Southeast 363 418 15,400 -720 Descending Chicago Center
09:04PM 42.8597 -89.0872 138° Southeast 357 411 14,700 -720 Descending Chicago Center
09:06PM 42.7742 -88.9825 138° Southeast 355 409 14,000 -360 Descending Chicago Center
09:07PM 42.7019 -88.8950 138° Southeast 349 402 14,000 -360 Level Chicago Center
09:08PM 42.6297 -88.8081 138° Southeast 348 400 13,300 -1,140 Descending Chicago Center
09:09PM 42.5589 -88.7217 138° Southeast 343 395 11,700 -1,500 Descending Chicago Center
09:10PM 42.4878 -88.6361 138° Southeast 342 394 10,300 -1,020 Descending Chicago Center
09:11PM 42.4158 -88.5306 133° Southeast 328 377 9,600 -960 Descending Chicago Center
09:12PM 42.3608 -88.4425 130° Southeast 312 359 8,400 -1,140 Descending Chicago Center
09:13PM 42.3081 -88.3608 131° Southeast 299 344 7,300 -1,080 Descending Chicago Center
09:14PM 42.2569 -88.2786 130° Southeast 290 334 6,200 -780 Descending Chicago Center
09:15PM 42.2081 -88.2019 131° Southeast 278 320 5,700 -600 Descending Chicago Center
09:16PM 42.1597 -88.1289 132° Southeast 268 308 5,000 -900 Descending Chicago Center
09:16PM 42.1167 -88.0833 142° Southeast 233 268 4,200 -1,260 Descending Chicago TRACON
09:17PM 42.0833 -88.0333 132° Southeast 202 232 3,000 -1,140 Descending Chicago TRACON
09:19PM 42.0333 -87.9833 143° Southeast 162 186 1,900 -960 Descending Chicago TRACON
09:20PM 42.0000 -87.9500 143° Southeast 154 177 1,100 -900 Descending Chicago TRACON
09:22PM 41.9817 -87.9067 180° South  Level Estimated